KAPF/APF METAR and TAF weather

Enter ICAO airport designator
Station Type Date Time Source
KAPF METAR 2020/12/01 19:53 UTC NOAA

KAPF 011953Z 04011KT 10SM CLR 19/07 A3011 RMK AO2 SLP193 T01940067


Station Type Date Time Source
KAPF Decoded METAR 2020/12/01 19:53 UTC NOAA

NAPLES MUNICIPAL AIRPORT, FL, United States (KAPF) 26-09N 081-46W
Dec 01, 2020 - 02:53 PM EST / 2020.12.01 1953 UTC
Wind: from the NE (040 degrees) at 13 MPH (11 KT):0
Visibility: 10 mile(s):0
Sky conditions: clear
Temperature: 66.9 F (19.4 C)
Dew Point: 44.1 F (6.7 C)
Relative Humidity: 43%
Pressure (altimeter): 30.11 in. Hg (1019 hPa)
ob: KAPF 011953Z 04011KT 10SM CLR 19/07 A3011 RMK AO2 SLP193 T01940067
cycle: 20

Station Type Date Time Source
KAPF TAF 2020/12/01 18:57 UTC NOAA

TAF KAPF 011735Z 0118/0218 35013G23KT P6SM FEW120 FEW250
FM012200 02010KT P6SM SKC
FM021600 05012G20KT P6SM SKC

Example: see airport list